Main page
METAR-TAF:

METAR-TAF

Airports :

Lomé–Tokoin International Airport

Lomé, Togo

latitude: 06-10N, longitude: 001-15E, elevation: 20 m

Current weather observation

The report was made 40 minutes ago, at 01:00 UTC
Wind 7 kt from the Southwest
Temperature 24°C
Humidity 94%
Pressure 1015 hPa
Visibility 10 km or more
Few clouds at a height of 900 ft

METAR: DXXX 150100Z 22007KT 9999 FEW009 24/23 Q1015 NOSIG

Time: 01:40 (01:40 UTC)

Forecast

The report was made 2 hours and 40 minutes ago, at 23:00 UTC
Forecast valid from 15 at 00 UTC to 16 at 06 UTC
Wind 4 kt from the West
Visibility 10 km or more
Few clouds at a height of 1000 ft
Becoming
from 15 at 08 UTC to 15 at 10 UTC
Wind 12 kt from the South/Southwest

TAF: DXXX 142300Z 1500/1606 26004KT 9999 FEW010 BECMG 1508/1510 20012KT

Weather observations and forecasts of more than 4000 airports (METAR and TAF reports).

The available stations are represented by yellow and red dots on the map.

Hover mouse over dot to see the name of the station.

Then click to see weather observations and forecasts.

To change the map : click on the green buttons with a black cross to zoom in, on the green button with a dash to zoom out, or on the green arrows for adjacent maps.


METAR-TAF: